createdAt,value
2022-09-30T00:01:37.684Z,18.19
2022-09-30T00:04:05.129Z,18.16
2022-09-30T00:06:33.196Z,18.11
2022-09-30T00:09:00.562Z,18.27
2022-09-30T00:11:28.984Z,18.15
2022-09-30T00:13:58.328Z,18.17
2022-09-30T00:16:26.459Z,18.09
2022-09-30T00:18:57.134Z,18.07
2022-09-30T00:21:25.405Z,18.11
2022-09-30T00:23:52.765Z,18.12
2022-09-30T00:26:20.849Z,18.04
2022-09-30T00:28:51.728Z,17.86
2022-09-30T00:31:19.805Z,17.85
2022-09-30T00:34:07.019Z,17.93
2022-09-30T00:36:43.703Z,17.93
2022-09-30T00:39:20.899Z,17.83
2022-09-30T00:41:49.018Z,17.81
2022-09-30T00:44:35.283Z,17.82
2022-09-30T00:47:02.648Z,17.75
2022-09-30T00:49:30.123Z,17.63
2022-09-30T00:51:57.411Z,17.69
2022-09-30T00:54:26.711Z,17.66
2022-09-30T00:56:54.867Z,17.55
2022-09-30T00:59:26.228Z,17.59
2022-09-30T01:01:54.347Z,17.59
2022-09-30T01:04:22.644Z,17.50
2022-09-30T01:06:50.204Z,17.47
2022-09-30T01:09:18.020Z,17.50
2022-09-30T01:11:45.430Z,17.55
2022-09-30T01:14:17.244Z,17.48
2022-09-30T01:16:50.511Z,17.47
2022-09-30T01:19:27.362Z,17.43
2022-09-30T01:21:58.166Z,17.42
2022-09-30T01:24:33.317Z,17.42
2022-09-30T01:27:00.754Z,17.33
2022-09-30T01:29:39.569Z,17.30
2022-09-30T01:32:13.208Z,17.23
2022-09-30T01:34:41.543Z,17.30
2022-09-30T01:37:11.696Z,17.33
2022-09-30T01:39:42.599Z,17.28
2022-09-30T01:42:22.930Z,17.15
2022-09-30T01:44:53.704Z,17.09
2022-09-30T01:47:30.145Z,17.04
2022-09-30T01:50:03.144Z,17.02
2022-09-30T01:52:34.348Z,16.95
2022-09-30T01:55:15.787Z,16.94
2022-09-30T01:57:49.293Z,16.89
2022-09-30T02:00:16.689Z,16.86
2022-09-30T02:02:53.492Z,16.82
2022-09-30T02:05:22.405Z,16.80
2022-09-30T02:07:52.166Z,16.68
2022-09-30T02:10:22.648Z,16.66
2022-09-30T02:12:52.059Z,16.60
2022-09-30T02:15:22.703Z,16.63
2022-09-30T02:17:52.368Z,16.63
2022-09-30T02:20:24.526Z,16.59
2022-09-30T02:23:02.940Z,16.54
2022-09-30T02:25:32.212Z,16.51
2022-09-30T02:28:00.123Z,16.50
2022-09-30T02:30:28.614Z,16.51
2022-09-30T02:32:56.958Z,16.50
2022-09-30T02:35:27.813Z,16.54
2022-09-30T02:38:24.543Z,16.56
2022-09-30T02:41:02.494Z,16.55
2022-09-30T02:43:29.985Z,16.60
2022-09-30T02:46:06.695Z,16.61
2022-09-30T02:48:40.191Z,16.70
2022-09-30T02:51:27.854Z,16.65
2022-09-30T02:54:21.426Z,16.66
2022-09-30T02:56:48.813Z,16.71
2022-09-30T02:59:16.114Z,16.73
2022-09-30T03:01:43.536Z,16.74
2022-09-30T03:04:13.347Z,16.74
2022-09-30T03:06:40.669Z,16.71
2022-09-30T03:09:08.231Z,16.88
2022-09-30T03:11:37.974Z,16.84
2022-09-30T03:14:24.169Z,16.83
2022-09-30T03:17:27.092Z,16.93
2022-09-30T03:20:13.838Z,16.91
2022-09-30T03:23:04.476Z,17.00
2022-09-30T03:25:35.064Z,16.97
2022-09-30T03:28:11.648Z,16.95
2022-09-30T03:30:43.380Z,17.04
2022-09-30T03:33:11.164Z,17.15
2022-09-30T03:35:57.241Z,17.18
2022-09-30T03:38:27.626Z,17.13
2022-09-30T03:40:59.662Z,17.13
2022-09-30T03:43:33.705Z,17.17
2022-09-30T03:46:07.137Z,17.24
2022-09-30T03:48:36.304Z,17.26
2022-09-30T03:51:03.640Z,17.26
2022-09-30T03:53:31.016Z,17.24
2022-09-30T03:55:58.512Z,17.36
2022-09-30T03:58:25.752Z,17.42
2022-09-30T04:00:53.528Z,17.46
2022-09-30T04:03:21.937Z,17.45
2022-09-30T04:05:51.548Z,17.55
2022-09-30T04:08:19.525Z,17.52
2022-09-30T04:10:47.102Z,17.61
2022-09-30T04:13:14.852Z,17.58
2022-09-30T04:15:42.337Z,17.65
2022-09-30T04:18:10.217Z,17.66
2022-09-30T04:20:38.385Z,17.59
2022-09-30T04:23:05.758Z,17.65
2022-09-30T04:25:35.974Z,17.73
2022-09-30T04:28:03.742Z,17.75
2022-09-30T04:30:33.602Z,17.75
2022-09-30T04:33:01.244Z,17.85
2022-09-30T04:35:30.217Z,17.94
2022-09-30T04:37:57.747Z,17.90
2022-09-30T04:40:26.295Z,17.90
2022-09-30T04:42:57.184Z,17.90
2022-09-30T04:45:25.179Z,17.92
2022-09-30T04:47:52.623Z,17.90
2022-09-30T04:50:19.927Z,17.87
2022-09-30T04:52:50.791Z,17.95
2022-09-30T04:55:18.235Z,17.91
2022-09-30T04:57:45.567Z,17.94
2022-09-30T16:09:57.079Z,20.70
2022-09-30T16:12:30.494Z,20.64
2022-09-30T16:15:07.374Z,20.68
2022-09-30T16:17:38.312Z,20.65
2022-09-30T16:20:08.508Z,20.66
2022-09-30T16:22:37.520Z,20.56
2022-09-30T16:25:11.122Z,20.54
2022-09-30T16:27:38.858Z,20.54
2022-09-30T16:30:07.345Z,20.59
2022-09-30T16:32:37.757Z,20.61
2022-09-30T16:35:05.775Z,20.55
2022-09-30T16:37:33.163Z,20.46
2022-09-30T16:40:08.546Z,20.42
2022-09-30T16:42:36.475Z,20.44
2022-09-30T16:45:05.179Z,20.43
2022-09-30T16:47:32.632Z,20.35
2022-09-30T16:50:00.111Z,20.41
2022-09-30T16:52:28.236Z,20.38
2022-09-30T16:54:58.487Z,20.30
2022-09-30T16:57:25.815Z,20.37
2022-09-30T16:59:53.262Z,20.28
2022-09-30T17:02:21.241Z,20.28
2022-09-30T17:04:48.755Z,20.29
2022-09-30T17:07:16.511Z,20.25
2022-09-30T17:09:43.817Z,20.24
2022-09-30T17:12:12.662Z,20.28
2022-09-30T17:14:40.552Z,20.26
2022-09-30T17:17:12.473Z,20.20
2022-09-30T17:19:41.316Z,20.25
2022-09-30T17:22:10.059Z,20.19
2022-09-30T17:24:40.347Z,20.12
2022-09-30T17:27:08.329Z,20.18
2022-09-30T17:29:42.064Z,20.16
2022-09-30T17:32:09.984Z,20.15
2022-09-30T17:34:37.620Z,20.12
2022-09-30T17:37:05.180Z,20.20
2022-09-30T17:39:32.703Z,20.19
2022-09-30T17:42:20.446Z,20.15
2022-09-30T17:44:48.379Z,20.17
2022-09-30T17:47:16.259Z,20.13
2022-09-30T17:49:45.368Z,20.08
2022-09-30T17:52:14.965Z,20.11
2022-09-30T17:54:42.914Z,20.07
2022-09-30T17:57:10.375Z,20.08
2022-09-30T17:59:41.404Z,20.07
2022-09-30T18:02:09.556Z,20.08
2022-09-30T18:04:38.343Z,20.05
2022-09-30T18:07:08.379Z,20.13
2022-09-30T18:09:40.863Z,20.11
2022-09-30T18:12:08.981Z,20.07
2022-09-30T18:14:39.612Z,20.10
2022-09-30T18:17:08.222Z,20.14
2022-09-30T18:19:36.328Z,20.11
2022-09-30T18:22:03.758Z,20.13
2022-09-30T18:24:51.122Z,20.09
2022-09-30T18:27:21.451Z,20.07
2022-09-30T18:29:50.420Z,20.09
2022-09-30T18:32:17.777Z,20.08
2022-09-30T18:34:47.046Z,20.09
2022-09-30T18:37:14.700Z,20.09
2022-09-30T18:39:42.993Z,20.04
2022-09-30T18:42:10.825Z,20.00
2022-09-30T18:44:40.272Z,20.06
2022-09-30T18:47:09.129Z,20.00
2022-09-30T18:49:37.242Z,20.00
2022-09-30T18:52:04.803Z,20.00
2022-09-30T18:54:32.154Z,19.99
2022-09-30T18:57:00.264Z,19.98
2022-09-30T18:59:27.679Z,20.01
2022-09-30T19:01:58.761Z,19.97
2022-09-30T19:04:32.460Z,19.96
2022-09-30T19:07:01.234Z,19.97
2022-09-30T19:09:30.615Z,19.90
2022-09-30T19:12:00.504Z,19.85
2022-09-30T19:14:32.635Z,19.84
2022-09-30T19:17:00.533Z,19.79
2022-09-30T19:19:28.091Z,19.78
2022-09-30T19:22:00.395Z,19.76
2022-09-30T19:24:32.985Z,19.74
2022-09-30T19:27:00.465Z,19.74
2022-09-30T19:29:27.864Z,19.75
2022-09-30T19:31:56.634Z,19.70
2022-09-30T19:34:31.738Z,19.73
2022-09-30T19:37:00.831Z,19.72
2022-09-30T19:39:40.333Z,19.61
2022-09-30T19:42:14.530Z,19.62
2022-09-30T19:44:42.748Z,19.53
2022-09-30T19:47:11.385Z,19.58
2022-09-30T19:49:39.296Z,19.56
2022-09-30T19:52:17.890Z,19.43
2022-09-30T19:54:49.475Z,19.42
2022-09-30T19:57:17.253Z,19.35
2022-09-30T19:59:45.411Z,19.39
2022-09-30T20:02:12.938Z,19.35
2022-09-30T20:04:42.675Z,19.34
2022-09-30T20:07:10.450Z,19.41
2022-09-30T20:09:37.898Z,19.32
2022-09-30T20:12:06.951Z,19.35
2022-09-30T20:14:53.981Z,19.31
2022-09-30T20:17:22.933Z,19.27
2022-09-30T20:20:10.968Z,19.25
2022-09-30T20:22:38.349Z,19.28
2022-09-30T20:25:05.718Z,19.21
2022-09-30T20:27:33.579Z,19.20
2022-09-30T20:30:00.992Z,19.27
2022-09-30T20:32:30.930Z,19.18
2022-09-30T20:34:58.761Z,19.15
2022-09-30T20:37:26.170Z,19.13
2022-09-30T20:39:56.727Z,19.08
2022-09-30T20:42:26.039Z,19.08
2022-09-30T20:44:56.187Z,19.07
2022-09-30T20:47:23.729Z,18.98
2022-09-30T20:49:51.051Z,18.92
2022-09-30T20:52:18.627Z,19.00
2022-09-30T20:54:45.955Z,19.01
2022-09-30T20:57:13.227Z,18.99
2022-09-30T20:59:40.488Z,18.98
2022-09-30T21:02:09.773Z,18.94
2022-09-30T21:04:39.024Z,18.89
2022-09-30T21:07:07.507Z,18.80
2022-09-30T21:09:36.793Z,18.88
2022-09-30T21:12:04.370Z,18.79
2022-09-30T21:14:33.293Z,18.76
2022-09-30T21:17:00.729Z,18.73
2022-09-30T21:19:29.533Z,18.74
2022-09-30T21:21:56.991Z,18.73
2022-09-30T21:24:25.475Z,18.69
2022-09-30T21:26:52.830Z,18.65
2022-09-30T21:29:22.313Z,18.67
2022-09-30T21:31:50.571Z,18.75
2022-09-30T21:34:18.103Z,18.72
2022-09-30T21:36:46.888Z,18.76
2022-09-30T21:39:14.300Z,18.87
2022-09-30T21:41:41.616Z,18.94
2022-09-30T21:44:09.388Z,18.81
2022-09-30T21:46:48.024Z,18.90
2022-09-30T21:49:22.074Z,18.78
2022-09-30T21:51:51.676Z,18.73
2022-09-30T21:54:19.342Z,18.72
2022-09-30T21:56:48.666Z,18.63
2022-09-30T21:59:16.090Z,18.59
2022-09-30T22:01:43.432Z,18.62
2022-09-30T22:04:11.121Z,18.62
2022-09-30T22:06:38.383Z,18.56
2022-09-30T22:09:05.835Z,18.47
2022-09-30T22:11:33.543Z,18.45
2022-09-30T22:14:02.740Z,18.49
2022-09-30T22:16:31.232Z,18.49
2022-09-30T22:19:00.289Z,18.47
2022-09-30T22:21:28.320Z,18.42
2022-09-30T22:23:55.651Z,18.44
2022-09-30T22:26:23.897Z,18.46
2022-09-30T22:28:58.114Z,18.49
2022-09-30T22:31:26.390Z,18.48
2022-09-30T22:34:19.223Z,18.46
2022-09-30T22:37:05.431Z,18.43
2022-09-30T22:39:33.196Z,18.45
2022-09-30T22:42:00.594Z,18.46
2022-09-30T22:44:28.622Z,18.43
2022-09-30T22:46:56.131Z,18.44
2022-09-30T22:49:24.562Z,18.42
2022-09-30T22:51:52.412Z,18.41
2022-09-30T22:54:19.853Z,18.45
2022-09-30T22:56:50.467Z,18.43
2022-09-30T22:59:21.119Z,18.44
2022-09-30T23:01:49.352Z,18.40
2022-09-30T23:04:17.538Z,18.38
2022-09-30T23:06:46.795Z,18.32
2022-09-30T23:09:14.266Z,18.33
2022-09-30T23:11:48.511Z,18.26
2022-09-30T23:14:16.509Z,18.28
2022-09-30T23:16:43.955Z,18.23
2022-09-30T23:19:11.271Z,18.20
2022-09-30T23:21:38.572Z,18.17
2022-09-30T23:24:12.171Z,18.15
2022-09-30T23:26:40.052Z,18.11
2022-09-30T23:29:07.991Z,18.10
2022-09-30T23:31:36.396Z,18.04
2022-09-30T23:34:04.243Z,18.00
2022-09-30T23:36:33.245Z,18.06
2022-09-30T23:39:05.079Z,18.07
2022-09-30T23:41:32.725Z,18.03
2022-09-30T23:44:01.063Z,17.98
2022-09-30T23:46:28.354Z,18.04
2022-09-30T23:48:55.804Z,18.01
2022-09-30T23:51:23.310Z,18.00
2022-09-30T23:53:50.784Z,18.15
2022-09-30T23:56:18.797Z,18.19
2022-09-30T23:58:46.405Z,18.16
